sensor_id;sensor_type;location;lat;lon;timestamp;P1;durP1;ratioP1;P2;durP2;ratioP2
78752;SDS011;68072;51.688;7.842;2024-03-02T00:01:37;3.57;;;2.27;;
78752;SDS011;68072;51.688;7.842;2024-03-02T00:04:05;2.75;;;1.90;;
78752;SDS011;68072;51.688;7.842;2024-03-02T00:06:32;1.83;;;1.73;;
78752;SDS011;68072;51.688;7.842;2024-03-02T00:08:58;1.90;;;1.60;;
78752;SDS011;68072;51.688;7.842;2024-03-02T00:11:23;1.67;;;1.58;;
78752;SDS011;68072;51.688;7.842;2024-03-02T00:13:49;1.73;;;1.63;;
78752;SDS011;68072;51.688;7.842;2024-03-02T00:16:17;1.48;;;1.38;;
78752;SDS011;68072;51.688;7.842;2024-03-02T00:18:43;1.58;;;1.15;;
78752;SDS011;68072;51.688;7.842;2024-03-02T00:21:09;2.47;;;1.30;;
78752;SDS011;68072;51.688;7.842;2024-03-02T00:23:34;2.13;;;1.58;;
78752;SDS011;68072;51.688;7.842;2024-03-02T00:26:00;1.77;;;1.65;;
78752;SDS011;68072;51.688;7.842;2024-03-02T00:28:32;6.13;;;1.93;;
78752;SDS011;68072;51.688;7.842;2024-03-02T00:30:59;1.92;;;1.50;;
78752;SDS011;68072;51.688;7.842;2024-03-02T00:33:27;2.15;;;1.65;;
78752;SDS011;68072;51.688;7.842;2024-03-02T00:35:53;2.03;;;1.83;;
78752;SDS011;68072;51.688;7.842;2024-03-02T00:38:19;1.67;;;1.58;;
78752;SDS011;68072;51.688;7.842;2024-03-02T00:40:44;2.17;;;1.50;;
78752;SDS011;68072;51.688;7.842;2024-03-02T00:45:54;1.88;;;1.77;;
78752;SDS011;68072;51.688;7.842;2024-03-02T00:48:19;5.40;;;2.00;;
78752;SDS011;68072;51.688;7.842;2024-03-02T00:50:44;2.33;;;1.63;;
78752;SDS011;68072;51.688;7.842;2024-03-02T00:53:10;4.13;;;1.88;;
78752;SDS011;68072;51.688;7.842;2024-03-02T00:55:37;2.08;;;1.80;;
78752;SDS011;68072;51.688;7.842;2024-03-02T00:58:02;2.58;;;1.80;;
78752;SDS011;68072;51.688;7.842;2024-03-02T01:00:27;3.33;;;2.37;;
78752;SDS011;68072;51.688;7.842;2024-03-02T01:02:53;7.07;;;2.40;;
78752;SDS011;68072;51.688;7.842;2024-03-02T01:05:18;2.57;;;2.07;;
78752;SDS011;68072;51.688;7.842;2024-03-02T01:07:43;2.17;;;1.97;;
78752;SDS011;68072;51.688;7.842;2024-03-02T01:10:09;3.53;;;2.22;;
78752;SDS011;68072;51.688;7.842;2024-03-02T01:12:35;4.53;;;2.42;;
78752;SDS011;68072;51.688;7.842;2024-03-02T01:15:00;3.70;;;2.07;;
78752;SDS011;68072;51.688;7.842;2024-03-02T01:17:26;2.63;;;2.10;;
78752;SDS011;68072;51.688;7.842;2024-03-02T01:19:51;2.03;;;1.83;;
78752;SDS011;68072;51.688;7.842;2024-03-02T01:22:16;3.60;;;2.00;;
78752;SDS011;68072;51.688;7.842;2024-03-02T01:24:42;2.85;;;2.05;;
78752;SDS011;68072;51.688;7.842;2024-03-02T01:27:08;4.83;;;2.37;;
78752;SDS011;68072;51.688;7.842;2024-03-02T01:29:33;2.93;;;2.27;;
78752;SDS011;68072;51.688;7.842;2024-03-02T01:31:58;2.17;;;2.03;;
78752;SDS011;68072;51.688;7.842;2024-03-02T01:34:23;2.90;;;2.10;;
78752;SDS011;68072;51.688;7.842;2024-03-02T01:36:49;3.53;;;1.90;;
78752;SDS011;68072;51.688;7.842;2024-03-02T01:39:14;2.97;;;2.07;;
78752;SDS011;68072;51.688;7.842;2024-03-02T01:41:39;1.83;;;1.73;;
78752;SDS011;68072;51.688;7.842;2024-03-02T01:44:04;2.42;;;1.80;;
78752;SDS011;68072;51.688;7.842;2024-03-02T01:46:30;2.20;;;1.90;;
78752;SDS011;68072;51.688;7.842;2024-03-02T01:48:55;1.77;;;1.67;;
78752;SDS011;68072;51.688;7.842;2024-03-02T01:51:20;3.27;;;2.07;;
78752;SDS011;68072;51.688;7.842;2024-03-02T01:53:46;2.20;;;1.83;;
78752;SDS011;68072;51.688;7.842;2024-03-02T01:56:11;2.47;;;1.80;;
78752;SDS011;68072;51.688;7.842;2024-03-02T01:58:36;2.87;;;2.00;;
78752;SDS011;68072;51.688;7.842;2024-03-02T02:01:02;2.30;;;1.92;;
78752;SDS011;68072;51.688;7.842;2024-03-02T02:03:27;3.22;;;2.10;;
78752;SDS011;68072;51.688;7.842;2024-03-02T02:05:53;2.53;;;1.87;;
78752;SDS011;68072;51.688;7.842;2024-03-02T02:08:18;1.53;;;1.43;;
78752;SDS011;68072;51.688;7.842;2024-03-02T02:10:43;3.30;;;2.10;;
78752;SDS011;68072;51.688;7.842;2024-03-02T02:13:08;2.17;;;1.92;;
78752;SDS011;68072;51.688;7.842;2024-03-02T02:15:34;3.37;;;2.10;;
78752;SDS011;68072;51.688;7.842;2024-03-02T02:18:01;1.85;;;1.73;;
78752;SDS011;68072;51.688;7.842;2024-03-02T02:20:26;2.42;;;1.77;;
78752;SDS011;68072;51.688;7.842;2024-03-02T02:22:53;1.97;;;1.77;;
78752;SDS011;68072;51.688;7.842;2024-03-02T02:25:18;3.50;;;2.50;;
78752;SDS011;68072;51.688;7.842;2024-03-02T02:27:44;2.87;;;1.93;;
78752;SDS011;68072;51.688;7.842;2024-03-02T02:30:09;2.17;;;1.90;;
78752;SDS011;68072;51.688;7.842;2024-03-02T02:32:34;3.00;;;2.03;;
78752;SDS011;68072;51.688;7.842;2024-03-02T02:35:00;2.57;;;1.80;;
78752;SDS011;68072;51.688;7.842;2024-03-02T02:37:25;3.50;;;2.27;;
78752;SDS011;68072;51.688;7.842;2024-03-02T02:39:50;4.40;;;2.27;;
78752;SDS011;68072;51.688;7.842;2024-03-02T02:42:15;4.43;;;1.70;;
78752;SDS011;68072;51.688;7.842;2024-03-02T02:44:40;2.13;;;1.97;;
78752;SDS011;68072;51.688;7.842;2024-03-02T02:47:06;3.20;;;1.77;;
78752;SDS011;68072;51.688;7.842;2024-03-02T02:49:31;4.57;;;2.30;;
78752;SDS011;68072;51.688;7.842;2024-03-02T02:51:56;1.70;;;1.60;;
78752;SDS011;68072;51.688;7.842;2024-03-02T02:54:21;6.60;;;2.47;;
78752;SDS011;68072;51.688;7.842;2024-03-02T02:56:47;2.63;;;2.00;;
78752;SDS011;68072;51.688;7.842;2024-03-02T02:59:12;2.17;;;1.97;;
78752;SDS011;68072;51.688;7.842;2024-03-02T03:01:37;2.50;;;1.80;;
78752;SDS011;68072;51.688;7.842;2024-03-02T03:04:02;6.57;;;2.40;;
78752;SDS011;68072;51.688;7.842;2024-03-02T03:06:28;3.17;;;1.80;;
78752;SDS011;68072;51.688;7.842;2024-03-02T03:08:53;3.57;;;2.30;;
78752;SDS011;68072;51.688;7.842;2024-03-02T03:11:18;3.23;;;2.33;;
78752;SDS011;68072;51.688;7.842;2024-03-02T03:13:43;4.00;;;2.10;;
78752;SDS011;68072;51.688;7.842;2024-03-02T03:16:08;5.00;;;2.17;;
78752;SDS011;68072;51.688;7.842;2024-03-02T03:18:34;3.63;;;2.27;;
78752;SDS011;68072;51.688;7.842;2024-03-02T03:20:59;3.30;;;2.00;;
78752;SDS011;68072;51.688;7.842;2024-03-02T03:23:24;3.70;;;1.87;;
78752;SDS011;68072;51.688;7.842;2024-03-02T03:25:50;1.90;;;1.70;;
78752;SDS011;68072;51.688;7.842;2024-03-02T03:28:16;3.87;;;2.40;;
78752;SDS011;68072;51.688;7.842;2024-03-02T03:30:41;3.23;;;1.93;;
78752;SDS011;68072;51.688;7.842;2024-03-02T03:33:06;3.37;;;2.40;;
78752;SDS011;68072;51.688;7.842;2024-03-02T03:35:32;4.70;;;2.30;;
78752;SDS011;68072;51.688;7.842;2024-03-02T03:37:57;3.13;;;2.00;;
78752;SDS011;68072;51.688;7.842;2024-03-02T03:40:22;3.87;;;2.03;;
78752;SDS011;68072;51.688;7.842;2024-03-02T03:42:47;2.50;;;2.30;;
78752;SDS011;68072;51.688;7.842;2024-03-02T03:45:13;3.55;;;2.28;;
78752;SDS011;68072;51.688;7.842;2024-03-02T03:47:39;2.63;;;1.97;;
78752;SDS011;68072;51.688;7.842;2024-03-02T03:50:04;3.43;;;2.17;;
78752;SDS011;68072;51.688;7.842;2024-03-02T03:52:32;2.90;;;2.03;;
78752;SDS011;68072;51.688;7.842;2024-03-02T03:54:57;2.15;;;1.75;;
78752;SDS011;68072;51.688;7.842;2024-03-02T03:57:22;2.13;;;1.90;;
78752;SDS011;68072;51.688;7.842;2024-03-02T03:59:47;2.10;;;1.90;;
78752;SDS011;68072;51.688;7.842;2024-03-02T04:02:13;2.47;;;2.10;;
78752;SDS011;68072;51.688;7.842;2024-03-02T04:04:38;1.80;;;1.70;;
78752;SDS011;68072;51.688;7.842;2024-03-02T04:07:03;3.17;;;2.00;;
78752;SDS011;68072;51.688;7.842;2024-03-02T04:09:29;3.42;;;1.60;;
78752;SDS011;68072;51.688;7.842;2024-03-02T04:11:54;3.50;;;2.20;;
78752;SDS011;68072;51.688;7.842;2024-03-02T04:14:19;2.00;;;1.57;;
78752;SDS011;68072;51.688;7.842;2024-03-02T04:16:45;3.43;;;1.73;;
78752;SDS011;68072;51.688;7.842;2024-03-02T04:19:10;4.93;;;1.90;;
78752;SDS011;68072;51.688;7.842;2024-03-02T04:21:35;3.30;;;1.70;;
78752;SDS011;68072;51.688;7.842;2024-03-02T04:24:00;2.63;;;2.10;;
78752;SDS011;68072;51.688;7.842;2024-03-02T04:26:26;2.17;;;1.93;;
78752;SDS011;68072;51.688;7.842;2024-03-02T04:28:51;3.15;;;2.20;;
78752;SDS011;68072;51.688;7.842;2024-03-02T04:31:17;3.88;;;2.13;;
78752;SDS011;68072;51.688;7.842;2024-03-02T04:33:42;2.23;;;2.03;;
78752;SDS011;68072;51.688;7.842;2024-03-02T04:36:07;2.33;;;1.80;;
78752;SDS011;68072;51.688;7.842;2024-03-02T04:38:34;3.72;;;2.03;;
78752;SDS011;68072;51.688;7.842;2024-03-02T04:40:59;4.80;;;2.35;;
78752;SDS011;68072;51.688;7.842;2024-03-02T04:43:25;3.73;;;2.40;;
78752;SDS011;68072;51.688;7.842;2024-03-02T04:45:50;2.70;;;2.20;;
78752;SDS011;68072;51.688;7.842;2024-03-02T04:48:15;3.23;;;2.53;;
78752;SDS011;68072;51.688;7.842;2024-03-02T04:50:40;4.27;;;2.40;;
78752;SDS011;68072;51.688;7.842;2024-03-02T04:53:06;2.33;;;2.03;;
78752;SDS011;68072;51.688;7.842;2024-03-02T04:55:31;2.80;;;2.53;;
78752;SDS011;68072;51.688;7.842;2024-03-02T04:57:59;3.35;;;2.22;;
78752;SDS011;68072;51.688;7.842;2024-03-02T05:00:24;2.63;;;2.40;;
78752;SDS011;68072;51.688;7.842;2024-03-02T05:02:49;4.90;;;2.67;;
78752;SDS011;68072;51.688;7.842;2024-03-02T05:05:16;2.85;;;2.15;;
78752;SDS011;68072;51.688;7.842;2024-03-02T05:07:41;3.87;;;2.60;;
78752;SDS011;68072;51.688;7.842;2024-03-02T05:10:10;4.18;;;2.60;;
78752;SDS011;68072;51.688;7.842;2024-03-02T05:12:35;3.33;;;2.50;;
78752;SDS011;68072;51.688;7.842;2024-03-02T05:15:00;4.57;;;3.17;;
78752;SDS011;68072;51.688;7.842;2024-03-02T05:17:26;3.95;;;2.60;;
78752;SDS011;68072;51.688;7.842;2024-03-02T05:19:51;3.63;;;2.53;;
78752;SDS011;68072;51.688;7.842;2024-03-02T05:22:16;7.00;;;2.87;;
78752;SDS011;68072;51.688;7.842;2024-03-02T05:24:41;4.27;;;2.47;;
78752;SDS011;68072;51.688;7.842;2024-03-02T05:27:07;5.40;;;3.53;;
78752;SDS011;68072;51.688;7.842;2024-03-02T05:29:32;5.78;;;3.45;;
78752;SDS011;68072;51.688;7.842;2024-03-02T05:31:57;3.67;;;2.87;;
78752;SDS011;68072;51.688;7.842;2024-03-02T05:34:23;5.17;;;2.90;;
78752;SDS011;68072;51.688;7.842;2024-03-02T05:36:48;6.00;;;2.53;;
78752;SDS011;68072;51.688;7.842;2024-03-02T05:39:13;4.53;;;2.60;;
78752;SDS011;68072;51.688;7.842;2024-03-02T05:41:38;4.88;;;2.75;;
78752;SDS011;68072;51.688;7.842;2024-03-02T05:44:04;6.30;;;3.33;;
78752;SDS011;68072;51.688;7.842;2024-03-02T05:46:29;2.77;;;2.20;;
78752;SDS011;68072;51.688;7.842;2024-03-02T05:48:54;5.27;;;2.60;;
78752;SDS011;68072;51.688;7.842;2024-03-02T05:51:20;3.90;;;2.40;;
78752;SDS011;68072;51.688;7.842;2024-03-02T05:53:45;5.70;;;2.97;;
78752;SDS011;68072;51.688;7.842;2024-03-02T05:56:10;3.57;;;2.87;;
78752;SDS011;68072;51.688;7.842;2024-03-02T05:58:37;3.13;;;2.65;;
78752;SDS011;68072;51.688;7.842;2024-03-02T06:03:43;2.38;;;2.17;;
78752;SDS011;68072;51.688;7.842;2024-03-02T06:06:08;6.13;;;2.97;;
78752;SDS011;68072;51.688;7.842;2024-03-02T06:08:33;3.33;;;2.60;;
78752;SDS011;68072;51.688;7.842;2024-03-02T06:10:58;5.05;;;2.70;;
78752;SDS011;68072;51.688;7.842;2024-03-02T06:13:24;4.93;;;2.50;;
78752;SDS011;68072;51.688;7.842;2024-03-02T06:15:51;5.57;;;2.78;;
78752;SDS011;68072;51.688;7.842;2024-03-02T06:18:16;5.77;;;3.10;;
78752;SDS011;68072;51.688;7.842;2024-03-02T06:20:41;4.20;;;2.67;;
78752;SDS011;68072;51.688;7.842;2024-03-02T06:23:06;4.33;;;2.40;;
78752;SDS011;68072;51.688;7.842;2024-03-02T06:25:32;5.70;;;3.00;;
78752;SDS011;68072;51.688;7.842;2024-03-02T06:27:57;4.17;;;3.03;;
78752;SDS011;68072;51.688;7.842;2024-03-02T06:30:22;3.90;;;2.70;;
78752;SDS011;68072;51.688;7.842;2024-03-02T06:32:47;4.37;;;2.67;;
78752;SDS011;68072;51.688;7.842;2024-03-02T06:35:13;4.77;;;3.00;;
78752;SDS011;68072;51.688;7.842;2024-03-02T06:37:38;5.53;;;2.80;;
78752;SDS011;68072;51.688;7.842;2024-03-02T06:42:32;3.40;;;2.25;;
78752;SDS011;68072;51.688;7.842;2024-03-02T06:44:58;3.60;;;2.58;;
78752;SDS011;68072;51.688;7.842;2024-03-02T06:47:23;3.95;;;2.80;;
78752;SDS011;68072;51.688;7.842;2024-03-02T06:49:49;3.63;;;2.53;;
78752;SDS011;68072;51.688;7.842;2024-03-02T06:52:14;6.23;;;2.83;;
78752;SDS011;68072;51.688;7.842;2024-03-02T06:54:39;5.33;;;2.77;;
78752;SDS011;68072;51.688;7.842;2024-03-02T06:57:04;3.27;;;2.53;;
78752;SDS011;68072;51.688;7.842;2024-03-02T06:59:29;4.37;;;2.57;;
78752;SDS011;68072;51.688;7.842;2024-03-02T07:01:55;4.83;;;3.43;;
78752;SDS011;68072;51.688;7.842;2024-03-02T07:04:20;4.22;;;2.80;;
78752;SDS011;68072;51.688;7.842;2024-03-02T07:06:45;4.97;;;2.33;;
78752;SDS011;68072;51.688;7.842;2024-03-02T07:09:11;3.73;;;2.33;;
78752;SDS011;68072;51.688;7.842;2024-03-02T07:11:36;8.40;;;3.17;;
78752;SDS011;68072;51.688;7.842;2024-03-02T07:14:01;3.90;;;2.50;;
78752;SDS011;68072;51.688;7.842;2024-03-02T07:16:26;4.17;;;2.43;;
78752;SDS011;68072;51.688;7.842;2024-03-02T07:18:58;3.33;;;2.15;;
78752;SDS011;68072;51.688;7.842;2024-03-02T07:21:24;3.03;;;2.33;;
78752;SDS011;68072;51.688;7.842;2024-03-02T07:23:49;3.47;;;2.50;;
78752;SDS011;68072;51.688;7.842;2024-03-02T07:26:14;3.90;;;2.50;;
78752;SDS011;68072;51.688;7.842;2024-03-02T07:28:40;2.30;;;1.87;;
78752;SDS011;68072;51.688;7.842;2024-03-02T07:31:06;2.83;;;2.15;;
78752;SDS011;68072;51.688;7.842;2024-03-02T07:33:32;3.60;;;2.63;;
78752;SDS011;68072;51.688;7.842;2024-03-02T07:35:58;6.43;;;2.97;;
78752;SDS011;68072;51.688;7.842;2024-03-02T07:38:24;3.08;;;2.35;;
78752;SDS011;68072;51.688;7.842;2024-03-02T07:40:50;3.28;;;2.65;;
78752;SDS011;68072;51.688;7.842;2024-03-02T07:43:16;4.28;;;2.55;;
78752;SDS011;68072;51.688;7.842;2024-03-02T07:45:41;3.92;;;2.65;;
78752;SDS011;68072;51.688;7.842;2024-03-02T07:48:07;3.28;;;2.42;;
78752;SDS011;68072;51.688;7.842;2024-03-02T07:50:32;4.20;;;2.63;;
78752;SDS011;68072;51.688;7.842;2024-03-02T07:53:00;6.82;;;2.70;;
78752;SDS011;68072;51.688;7.842;2024-03-02T07:55:25;4.50;;;2.80;;
78752;SDS011;68072;51.688;7.842;2024-03-02T07:57:50;3.47;;;2.17;;
78752;SDS011;68072;51.688;7.842;2024-03-02T08:00:15;7.50;;;2.63;;
78752;SDS011;68072;51.688;7.842;2024-03-02T08:02:41;2.30;;;2.10;;
78752;SDS011;68072;51.688;7.842;2024-03-02T08:07:32;3.25;;;2.20;;
78752;SDS011;68072;51.688;7.842;2024-03-02T08:09:57;2.73;;;2.43;;
78752;SDS011;68072;51.688;7.842;2024-03-02T08:12:23;5.40;;;2.73;;
78752;SDS011;68072;51.688;7.842;2024-03-02T08:14:48;4.57;;;2.38;;
78752;SDS011;68072;51.688;7.842;2024-03-02T08:17:13;5.37;;;2.30;;
78752;SDS011;68072;51.688;7.842;2024-03-02T08:19:39;3.73;;;2.40;;
78752;SDS011;68072;51.688;7.842;2024-03-02T08:22:04;3.47;;;2.40;;
78752;SDS011;68072;51.688;7.842;2024-03-02T08:24:29;2.97;;;2.08;;
78752;SDS011;68072;51.688;7.842;2024-03-02T08:26:55;2.23;;;2.03;;
78752;SDS011;68072;51.688;7.842;2024-03-02T08:29:20;3.60;;;2.07;;
78752;SDS011;68072;51.688;7.842;2024-03-02T08:31:45;3.93;;;2.37;;
78752;SDS011;68072;51.688;7.842;2024-03-02T08:34:10;2.73;;;2.10;;
78752;SDS011;68072;51.688;7.842;2024-03-02T08:36:35;3.13;;;2.10;;
78752;SDS011;68072;51.688;7.842;2024-03-02T08:39:01;4.22;;;2.20;;
78752;SDS011;68072;51.688;7.842;2024-03-02T08:41:27;2.53;;;2.22;;
78752;SDS011;68072;51.688;7.842;2024-03-02T08:43:52;4.03;;;2.50;;
78752;SDS011;68072;51.688;7.842;2024-03-02T08:46:17;2.60;;;2.27;;
78752;SDS011;68072;51.688;7.842;2024-03-02T08:48:42;2.63;;;1.90;;
78752;SDS011;68072;51.688;7.842;2024-03-02T08:51:08;4.00;;;2.00;;
78752;SDS011;68072;51.688;7.842;2024-03-02T08:53:35;2.03;;;1.88;;
78752;SDS011;68072;51.688;7.842;2024-03-02T08:56:00;5.27;;;2.20;;
78752;SDS011;68072;51.688;7.842;2024-03-02T08:58:25;2.20;;;1.80;;
78752;SDS011;68072;51.688;7.842;2024-03-02T09:00:51;3.30;;;2.10;;
78752;SDS011;68072;51.688;7.842;2024-03-02T09:03:16;3.20;;;1.90;;
78752;SDS011;68072;51.688;7.842;2024-03-02T09:05:41;3.03;;;1.77;;
78752;SDS011;68072;51.688;7.842;2024-03-02T09:08:07;5.20;;;2.17;;
78752;SDS011;68072;51.688;7.842;2024-03-02T09:10:33;1.77;;;1.60;;
78752;SDS011;68072;51.688;7.842;2024-03-02T09:12:58;2.60;;;2.00;;
78752;SDS011;68072;51.688;7.842;2024-03-02T09:15:23;3.57;;;1.90;;
78752;SDS011;68072;51.688;7.842;2024-03-02T09:17:49;3.50;;;1.50;;
78752;SDS011;68072;51.688;7.842;2024-03-02T09:20:14;3.13;;;1.43;;
78752;SDS011;68072;51.688;7.842;2024-03-02T09:22:39;3.47;;;1.57;;
78752;SDS011;68072;51.688;7.842;2024-03-02T09:25:04;3.63;;;1.70;;
78752;SDS011;68072;51.688;7.842;2024-03-02T09:27:32;3.05;;;1.73;;
78752;SDS011;68072;51.688;7.842;2024-03-02T09:29:57;2.77;;;1.90;;
78752;SDS011;68072;51.688;7.842;2024-03-02T09:32:22;4.63;;;1.97;;
78752;SDS011;68072;51.688;7.842;2024-03-02T09:34:48;2.88;;;1.80;;
78752;SDS011;68072;51.688;7.842;2024-03-02T09:37:13;2.03;;;1.63;;
78752;SDS011;68072;51.688;7.842;2024-03-02T09:39:39;3.90;;;1.90;;
78752;SDS011;68072;51.688;7.842;2024-03-02T09:42:04;2.95;;;1.80;;
78752;SDS011;68072;51.688;7.842;2024-03-02T09:44:29;3.88;;;1.80;;
78752;SDS011;68072;51.688;7.842;2024-03-02T09:46:55;1.13;;;1.03;;
78752;SDS011;68072;51.688;7.842;2024-03-02T09:49:20;2.10;;;1.63;;
78752;SDS011;68072;51.688;7.842;2024-03-02T09:51:49;2.53;;;1.77;;
78752;SDS011;68072;51.688;7.842;2024-03-02T09:54:17;1.60;;;1.40;;
78752;SDS011;68072;51.688;7.842;2024-03-02T09:56:42;3.65;;;1.60;;
78752;SDS011;68072;51.688;7.842;2024-03-02T10:01:58;2.10;;;1.50;;
78752;SDS011;68072;51.688;7.842;2024-03-02T10:04:25;1.52;;;1.42;;
78752;SDS011;68072;51.688;7.842;2024-03-02T10:06:50;2.47;;;1.70;;
78752;SDS011;68072;51.688;7.842;2024-03-02T10:09:26;1.87;;;1.30;;
78752;SDS011;68072;51.688;7.842;2024-03-02T10:11:51;3.28;;;1.33;;
78752;SDS011;68072;51.688;7.842;2024-03-02T10:14:17;2.97;;;1.30;;
78752;SDS011;68072;51.688;7.842;2024-03-02T10:16:46;2.05;;;1.38;;
78752;SDS011;68072;51.688;7.842;2024-03-02T10:19:18;1.90;;;1.10;;
78752;SDS011;68072;51.688;7.842;2024-03-02T10:21:44;1.48;;;1.38;;
78752;SDS011;68072;51.688;7.842;2024-03-02T10:24:10;1.45;;;1.08;;
78752;SDS011;68072;51.688;7.842;2024-03-02T10:26:35;1.53;;;1.10;;
78752;SDS011;68072;51.688;7.842;2024-03-02T10:29:00;1.30;;;1.20;;
78752;SDS011;68072;51.688;7.842;2024-03-02T10:31:26;0.90;;;0.90;;
78752;SDS011;68072;51.688;7.842;2024-03-02T10:33:54;2.30;;;1.52;;
78752;SDS011;68072;51.688;7.842;2024-03-02T10:36:19;0.88;;;0.88;;
78752;SDS011;68072;51.688;7.842;2024-03-02T10:38:44;0.80;;;0.80;;
78752;SDS011;68072;51.688;7.842;2024-03-02T10:41:11;1.23;;;1.10;;
78752;SDS011;68072;51.688;7.842;2024-03-02T10:43:37;1.23;;;1.20;;
78752;SDS011;68072;51.688;7.842;2024-03-02T10:46:02;1.65;;;1.20;;
78752;SDS011;68072;51.688;7.842;2024-03-02T10:48:28;1.88;;;1.10;;
78752;SDS011;68072;51.688;7.842;2024-03-02T10:50:53;0.80;;;0.80;;
78752;SDS011;68072;51.688;7.842;2024-03-02T10:53:18;1.00;;;1.00;;
78752;SDS011;68072;51.688;7.842;2024-03-02T10:55:43;0.93;;;0.93;;
78752;SDS011;68072;51.688;7.842;2024-03-02T10:58:09;1.67;;;1.40;;
78752;SDS011;68072;51.688;7.842;2024-03-02T11:00:36;1.90;;;1.13;;
78752;SDS011;68072;51.688;7.842;2024-03-02T11:03:06;1.00;;;1.00;;
78752;SDS011;68072;51.688;7.842;2024-03-02T11:05:36;1.15;;;1.13;;
78752;SDS011;68072;51.688;7.842;2024-03-02T11:08:02;1.52;;;1.08;;
78752;SDS011;68072;51.688;7.842;2024-03-02T11:10:41;1.92;;;1.30;;
78752;SDS011;68072;51.688;7.842;2024-03-02T11:13:11;1.52;;;1.40;;
78752;SDS011;68072;51.688;7.842;2024-03-02T11:15:37;1.25;;;1.15;;
78752;SDS011;68072;51.688;7.842;2024-03-02T11:18:04;2.08;;;1.17;;
78752;SDS011;68072;51.688;7.842;2024-03-02T11:20:33;1.52;;;1.42;;
78752;SDS011;68072;51.688;7.842;2024-03-02T11:25:25;2.80;;;1.00;;
78752;SDS011;68072;51.688;7.842;2024-03-02T11:32:56;2.50;;;1.23;;
78752;SDS011;68072;51.688;7.842;2024-03-02T11:35:23;1.40;;;1.17;;
78752;SDS011;68072;51.688;7.842;2024-03-02T11:37:48;0.88;;;0.80;;
78752;SDS011;68072;51.688;7.842;2024-03-02T11:40:14;1.10;;;1.00;;
78752;SDS011;68072;51.688;7.842;2024-03-02T11:42:39;1.30;;;1.13;;
78752;SDS011;68072;51.688;7.842;2024-03-02T11:45:05;1.35;;;1.25;;
78752;SDS011;68072;51.688;7.842;2024-03-02T11:47:33;1.00;;;0.90;;
78752;SDS011;68072;51.688;7.842;2024-03-02T11:49:58;1.03;;;1.00;;
78752;SDS011;68072;51.688;7.842;2024-03-02T11:52:24;1.07;;;0.97;;
78752;SDS011;68072;51.688;7.842;2024-03-02T11:54:50;0.80;;;0.80;;
78752;SDS011;68072;51.688;7.842;2024-03-02T11:57:20;2.08;;;1.08;;
78752;SDS011;68072;51.688;7.842;2024-03-02T11:59:47;1.02;;;0.80;;
78752;SDS011;68072;51.688;7.842;2024-03-02T12:02:15;0.82;;;0.82;;
78752;SDS011;68072;51.688;7.842;2024-03-02T12:04:42;1.58;;;1.08;;
78752;SDS011;68072;51.688;7.842;2024-03-02T12:07:08;1.52;;;0.90;;
78752;SDS011;68072;51.688;7.842;2024-03-02T12:09:33;0.70;;;0.70;;
78752;SDS011;68072;51.688;7.842;2024-03-02T12:14:28;0.60;;;0.60;;
78752;SDS011;68072;51.688;7.842;2024-03-02T12:16:54;1.02;;;1.00;;
78752;SDS011;68072;51.688;7.842;2024-03-02T12:19:20;0.70;;;0.70;;
78752;SDS011;68072;51.688;7.842;2024-03-02T12:21:46;0.73;;;0.73;;
78752;SDS011;68072;51.688;7.842;2024-03-02T12:24:11;1.13;;;0.83;;
78752;SDS011;68072;51.688;7.842;2024-03-02T12:26:40;1.57;;;0.80;;
78752;SDS011;68072;51.688;7.842;2024-03-02T12:29:06;0.82;;;0.80;;
78752;SDS011;68072;51.688;7.842;2024-03-02T12:31:32;1.20;;;1.10;;
78752;SDS011;68072;51.688;7.842;2024-03-02T12:33:57;0.93;;;0.90;;
78752;SDS011;68072;51.688;7.842;2024-03-02T12:36:23;0.68;;;0.57;;
78752;SDS011;68072;51.688;7.842;2024-03-02T12:38:48;0.80;;;0.80;;
78752;SDS011;68072;51.688;7.842;2024-03-02T12:41:16;1.00;;;1.00;;
78752;SDS011;68072;51.688;7.842;2024-03-02T12:43:42;0.82;;;0.70;;
78752;SDS011;68072;51.688;7.842;2024-03-02T12:46:07;0.80;;;0.80;;
78752;SDS011;68072;51.688;7.842;2024-03-02T12:48:32;0.95;;;0.90;;
78752;SDS011;68072;51.688;7.842;2024-03-02T12:53:23;0.80;;;0.77;;
78752;SDS011;68072;51.688;7.842;2024-03-02T12:55:49;1.00;;;1.00;;
78752;SDS011;68072;51.688;7.842;2024-03-02T12:58:21;0.65;;;0.60;;
78752;SDS011;68072;51.688;7.842;2024-03-02T13:00:47;2.55;;;0.90;;
78752;SDS011;68072;51.688;7.842;2024-03-02T13:03:12;1.25;;;0.75;;
78752;SDS011;68072;51.688;7.842;2024-03-02T13:05:38;0.90;;;0.90;;
78752;SDS011;68072;51.688;7.842;2024-03-02T13:08:06;0.93;;;0.88;;
78752;SDS011;68072;51.688;7.842;2024-03-02T13:10:32;0.80;;;0.80;;
78752;SDS011;68072;51.688;7.842;2024-03-02T13:15:22;0.52;;;0.52;;
78752;SDS011;68072;51.688;7.842;2024-03-02T13:17:48;0.67;;;0.67;;
78752;SDS011;68072;51.688;7.842;2024-03-02T13:20:14;1.20;;;1.10;;
78752;SDS011;68072;51.688;7.842;2024-03-02T13:22:39;1.58;;;1.48;;
78752;SDS011;68072;51.688;7.842;2024-03-02T13:25:05;0.90;;;0.90;;
78752;SDS011;68072;51.688;7.842;2024-03-02T13:27:30;1.77;;;1.02;;
78752;SDS011;68072;51.688;7.842;2024-03-02T13:29:57;1.27;;;1.13;;
78752;SDS011;68072;51.688;7.842;2024-03-02T13:32:22;0.83;;;0.83;;
78752;SDS011;68072;51.688;7.842;2024-03-02T13:34:49;0.95;;;0.95;;
78752;SDS011;68072;51.688;7.842;2024-03-02T13:37:14;1.35;;;1.02;;
78752;SDS011;68072;51.688;7.842;2024-03-02T13:39:40;0.83;;;0.83;;
78752;SDS011;68072;51.688;7.842;2024-03-02T13:42:12;0.75;;;0.75;;
78752;SDS011;68072;51.688;7.842;2024-03-02T13:44:39;1.60;;;1.02;;
78752;SDS011;68072;51.688;7.842;2024-03-02T13:47:05;0.90;;;0.90;;
78752;SDS011;68072;51.688;7.842;2024-03-02T13:49:30;0.93;;;0.90;;
78752;SDS011;68072;51.688;7.842;2024-03-02T13:52:01;1.40;;;1.00;;
78752;SDS011;68072;51.688;7.842;2024-03-02T13:54:28;1.27;;;1.13;;
78752;SDS011;68072;51.688;7.842;2024-03-02T13:56:53;1.10;;;1.00;;
78752;SDS011;68072;51.688;7.842;2024-03-02T13:59:19;1.40;;;0.77;;
78752;SDS011;68072;51.688;7.842;2024-03-02T14:01:44;0.70;;;0.70;;
78752;SDS011;68072;51.688;7.842;2024-03-02T14:04:09;1.42;;;1.10;;
78752;SDS011;68072;51.688;7.842;2024-03-02T14:06:34;1.90;;;1.10;;
78752;SDS011;68072;51.688;7.842;2024-03-02T14:09:00;0.67;;;0.67;;
78752;SDS011;68072;51.688;7.842;2024-03-02T14:11:25;0.83;;;0.83;;
78752;SDS011;68072;51.688;7.842;2024-03-02T14:13:50;0.90;;;0.90;;
78752;SDS011;68072;51.688;7.842;2024-03-02T14:16:19;1.02;;;0.93;;
78752;SDS011;68072;51.688;7.842;2024-03-02T14:18:44;0.70;;;0.70;;
78752;SDS011;68072;51.688;7.842;2024-03-02T14:21:09;0.83;;;0.83;;
78752;SDS011;68072;51.688;7.842;2024-03-02T14:23:35;0.80;;;0.80;;
78752;SDS011;68072;51.688;7.842;2024-03-02T14:26:00;0.77;;;0.77;;
78752;SDS011;68072;51.688;7.842;2024-03-02T14:28:25;0.73;;;0.73;;
78752;SDS011;68072;51.688;7.842;2024-03-02T14:30:50;3.53;;;1.10;;
78752;SDS011;68072;51.688;7.842;2024-03-02T14:33:15;0.90;;;0.90;;
78752;SDS011;68072;51.688;7.842;2024-03-02T14:35:41;0.80;;;0.80;;
78752;SDS011;68072;51.688;7.842;2024-03-02T14:38:07;2.10;;;1.03;;
78752;SDS011;68072;51.688;7.842;2024-03-02T14:40:32;1.10;;;1.00;;
78752;SDS011;68072;51.688;7.842;2024-03-02T14:42:58;1.77;;;1.00;;
78752;SDS011;68072;51.688;7.842;2024-03-02T14:45:23;1.57;;;0.90;;
78752;SDS011;68072;51.688;7.842;2024-03-02T14:47:49;0.68;;;0.68;;
78752;SDS011;68072;51.688;7.842;2024-03-02T14:50:14;0.50;;;0.50;;
78752;SDS011;68072;51.688;7.842;2024-03-02T14:52:41;0.57;;;0.57;;
78752;SDS011;68072;51.688;7.842;2024-03-02T14:55:06;0.80;;;0.80;;
78752;SDS011;68072;51.688;7.842;2024-03-02T14:57:33;0.70;;;0.70;;
78752;SDS011;68072;51.688;7.842;2024-03-02T14:59:58;0.80;;;0.80;;
78752;SDS011;68072;51.688;7.842;2024-03-02T15:02:23;0.77;;;0.77;;
78752;SDS011;68072;51.688;7.842;2024-03-02T15:04:48;2.17;;;0.95;;
78752;SDS011;68072;51.688;7.842;2024-03-02T15:07:14;1.23;;;0.90;;